Declared Sites

SiteID SiteReference FullSiteName SiteType ArchiveStatus DeclarationTypesort descending Gazette Date Province Country Latitude Longitude
28793 9/2/032/0009/001 Water wheel No. 2, Plot 103, South Furrow, Kakamas Building 30/10/1992 Northern Cape South Africa -28.783353 20.635208
33190 9/2/036/0002 Taung Skull Palaeontological 21/05/2004 North West South Africa -27.620307 24.635779
27288 9/2/100/0002-076 89B Church Street, Victoria West Building Register Heritage Register 26/08/1994 Northern Cape South Africa -31.402301 23.105987
28503 9/2/035/0012-047 Rhyneveldt Street, Hanover Building Register Heritage Register 26/08/1994 Northern Cape South Africa -31.067267 24.441288
26976 9/2/111/0143 Palmyra Homestead, 7 Montrose Street, Claremont, Cape Town Building Register Heritage Register 04/04/1997 Western Cape South Africa -33.981844 18.468801
28380 9/2/049/0076 213 Dutoitspan Road, Kimberley Building Register Heritage Register 26/08/1994 Northern Cape South Africa -28.747373 24.775554
26458 9/2/324/0003 Kroonstad North Nederduitse Gereformeerde Church, Reitz, Symond and Malherbe Streets, Kroonstad Building Register Heritage Register 13/07/1990 Free State South Africa -27.650000 27.233333
59 9/2/003/0049 38 Somerset Street, Grahamstown Building Register Heritage Register 07/07/1995 Eastern Cape South Africa -32.250981 24.534919
26416 9/2/333/0004 Town Hall, Voortrekker Street, Reitz Building Register (Withdrawn) Heritage Register 18/08/1995 Free State South Africa -27.799267 28.430206
27645 9/2/083/0041 Bredell House, Helderberg Village, Bredell Road, Somerset West District Building Register Heritage Register 12/02/1999 Western Cape South Africa -34.045735 18.812603
27243 9/2/100/0002-141 25 Helpmekaar Street, Victoria West Building Register Heritage Register 26/08/1994 Northern Cape South Africa -31.404800 23.120701
28521 9/2/035/0012-020 Standard Bank, cnr Market and Darling Streets, Hanover Building Register Heritage Register 26/08/1994 Northern Cape South Africa -31.068160 24.442381
26274 9/2/412/0014 Ottawa Estate Shree Emperumal Temple, Ottawa, Inanda District Building Register Heritage Register 30/08/1996 KwaZulu-Natal South Africa -29.672207 31.038888
27278 9/2/100/0002-085 103 Church Street, Victoria West Building Register Heritage Register 26/08/1994 Northern Cape South Africa -31.401415 23.104476
28335 9/2/049/0120-023 1 Smith Street, Kimberley Building Register Heritage Register 26/08/1994 Northern Cape South Africa -28.743550 24.778278
28303 9/2/049/0120-068 4 Belgrave Road, Kimberley Building Register Heritage Register 26/08/1994 Northern Cape South Africa -28.742464 24.777067
27320 9/2/100/0002-003 2 Daniel Hugo Street, Victoria West Building Register Heritage Register 26/08/1994 Northern Cape South Africa -31.402277 23.114493
28436 9/2/049/0002-138 28 Main Road, Kimberley Building Register Heritage Register 26/08/1994 Northern Cape South Africa -28.758117 24.786914
26566 9/2/300/0031 Old Nederduitse Gereformeerde Mission Church parsonage, President Boshoff Street, Bethlehem Building National monument Heritage Register 19/05/1989 Free State South Africa -28.233292 28.313585
28294 9/2/049/0120-089 5 Egerton Road, Kimberley Building Register Heritage Register 26/08/1994 Northern Cape South Africa -28.748453 24.779707
28320 9/2/049/0120-036 Cenotaph, Spencer Street, Kimberley Building Register Heritage Register 26/08/1994 Northern Cape South Africa -28.745682 24.774599
26398 9/2/339/0003 Town Hall, Voortrekker Street, Trompsburg Building Register Heritage Register 18/08/1995 Free State South Africa -30.031457 25.781981
28290 9/2/049/0120-099 46a Carrington Road, Kimberley Building Register Heritage Register 26/08/1994 Northern Cape South Africa -28.755136 24.771528
27820 9/2/078/0012-011 15 Loop Street, Richmond Building Register Heritage Register 26/08/1994 Northern Cape South Africa -31.413236 23.940898
27817 9/2/078/0012-013 19 Loop Street, Richmond Building Register Heritage Register 26/08/1994 Northern Cape South Africa -31.413419 23.941049
27771 9/2/078/0012-059 Erf 622, 46 Loop Street, Richmond Building Register Heritage Register 26/08/1994 Northern Cape South Africa -31.413557 23.947970
28898 9/2/023/0033-041 16 Stockenstrom Street, Colesberg Building Register Heritage Register 26/08/1994 Northern Cape South Africa -30.721419 25.095018
26861 9/2/228/0152 House Gordon, 10-12 Seymour Road, Parktown, Johannesburg Building Register Heritage Register 04/06/1993 Gauteng South Africa -26.182110 28.027780
28272 9/2/049/0120-114 15 Carrington Road, Kimberley Building Register Heritage Register 26/08/1994 Northern Cape South Africa -28.752250 24.775503
27286 9/2/100/0002-079 5 Fraser Street, Victoria West Building Register Heritage Register 26/08/1994 Northern Cape South Africa -31.403485 23.115855
28314 9/2/049/0120-059 5 Carrington Road, Kimberley Building Register Heritage Register 26/08/1994 Northern Cape South Africa -28.750786 24.777192
27256 9/2/100/0002-128 9 Brinkman Street, Victoria West Building Register Heritage Register 26/08/1994 Northern Cape South Africa -31.404842 23.106760
28515 9/2/035/0012-031 Gouws Street, Hanover Building Register Heritage Register 26/08/1994 Northern Cape South Africa -31.070347 24.440504
28378 9/2/049/0078 217 Dutoitspan Road, Kimberley Building Register Heritage Register 26/08/1994 Northern Cape South Africa -28.747533 24.775790
26879 9/2/228/0087 Terrace Houses, Bertrams, Johannesburg Building Register Heritage Register 10/04/1992 Gauteng South Africa -26.193211 28.066176
27305 9/2/100/0002-033 4 Hoek Street, Victoria West Building Register Heritage Register 26/08/1994 Northern Cape South Africa -31.403056 23.120556
26504 9/2/309/0006 St Bartholomew Anglican Church, 27 van der Wath Street, Dewetsdorp Building Register Heritage Register 22/05/1998 Free State South Africa -29.580161 26.667858
28900 9/2/023/0033-039 6 Church Street, Colesberg Building Register Heritage Register 26/08/1994 Northern Cape South Africa -30.716661 25.099935
29037 9/2/019/0002-077 Standard Bank, Alheit Street, Carnarvon Building Register Heritage Register 09/12/1994 Northern Cape South Africa -30.966848 22.133041
28523 9/2/035/0012-013 Erf 321, Cnr Gouws and Duncan Streets, Hanover Building Register Heritage Register 26/08/1994 Northern Cape South Africa -31.069580 24.441109
27596 9/2/084/0039 Fynbos Guesthouse, 14 Neethling Street, Stellenbosch Building Register Heritage Register 14/08/1992 Western Cape South Africa -33.937207 18.866592
26386 9/2/344/0004 Nederduitse Gereformeerde Church Hall, Church Street, Vredefort Building Register Heritage Register 08/05/1992 Free State South Africa -27.005329 27.367530
28297 9/2/049/0120-077 17 Egerton Road, Kimberley Building Register Heritage Register 26/08/1994 Northern Cape South Africa -28.746764 24.781508
28851 9/2/026/0032 Cambridge Primary School, Brabant Street, East London Building Register Heritage Register 07/07/1995 Eastern Cape South Africa -32.974189 27.886863
26558 9/2/302/0006 Old Prison, Bloemfontein Building Register Heritage Register 13/07/1990 Free State South Africa -29.116667 26.216667
29397 9/2/015/0054 5 Max Harris Street, Grabouw Building Register Heritage Register 03/09/1999 Western Cape South Africa -34.152155 19.022707
28531 9/2/035/0009 Olive Schreiner House, 11 Grace Street, Hanover Building Register Heritage Register 26/08/1994 Northern Cape South Africa -31.065411 24.443783
28519 9/2/035/0012-022 Shop complex, Market Street, Hanover Building Register Heritage Register 26/08/1994 Northern Cape South Africa -31.068160 24.442381
28514 9/2/035/0012-030 Cnr Market and Rawstorne Streets, Hanover Building Register Heritage Register 26/08/1994 Northern Cape South Africa -31.067549 24.439704
28332 9/2/049/0120-020 13 Spencer Street, Kimberley Building Register Heritage Register 26/08/1994 Northern Cape South Africa -28.745297 24.774297

Pages

XLS
 
 

Search form